Aviation Digital Data Service (ADDS)

Output produced by METARs form (1936 UTC 17 February 2018)
found at http://aviationweather.gov/adds/metars/
 
KAVL 171740Z 1718/1818 16008KT 5SM -SHRADZ SCT005 OVC012 
     TEMPO 1718/1720 2SM -RADZ BKN005 OVC010 
     FM172000 18008KT 3SM -RADZ OVC008 
     FM180000 25004KT 2SM BR SCT004 OVC008 
     FM180300 33010KT P6SM SCT008 BKN020 
     FM180600 34014G21KT P6SM BKN035 
     FM181200 35009KT P6SM SCT250